Time;durP1;ratioP1;P1;durP2;ratioP2;P2;SDS_P1;SDS_P2;PMS_P1;PMS_P2;Temp;Humidity;BMP_temperature;BMP_pressure;BME280_temperature;BME280_humidity;BME280_pressure;Samples;Min_cycle;Max_cycle;Signal;HPM_P1;HPM_P2
2022/12/18 00:00:42;;;;;;;;;55.25;44.75;;;;;1.12;59.81;102074.34;5000013;28;46023;-68
2022/12/18 00:03:08;;;;;;;;;63.50;48.75;;;;;1.10;59.26;102076.91;5000160;28;45393;-68
2022/12/18 00:05:33;;;;;;;;;57.00;47.00;;;;;1.09;59.38;102069.00;5000238;28;45423;-68
2022/12/18 00:07:59;;;;;;;;;54.25;43.00;;;;;1.06;59.66;102068.91;4999870;28;45527;-68
2022/12/18 00:10:24;;;;;;;;;62.25;46.00;;;;;1.11;59.75;102070.78;5012614;28;46402;-68
2022/12/18 00:12:49;;;;;;;;;56.00;46.00;;;;;1.13;59.87;102069.97;5005702;28;45243;-68
2022/12/18 00:15:15;;;;;;;;;54.75;43.75;;;;;1.15;59.24;102073.50;5013364;28;45425;-68
2022/12/18 00:17:40;;;;;;;;;59.75;45.75;;;;;1.15;59.86;102076.16;4999786;28;45500;-68
2022/12/18 00:20:06;;;;;;;;;57.00;46.50;;;;;1.04;59.24;102060.09;5005292;28;45359;-68
2022/12/18 00:22:31;;;;;;;;;51.25;45.00;;;;;1.02;59.22;102072.28;5007596;28;45416;-68
2022/12/18 00:24:57;;;;;;;;;41.25;38.75;;;;;0.97;59.08;102063.38;5018946;28;45387;-68
2022/12/18 00:27:22;;;;;;;;;61.50;50.00;;;;;0.99;59.04;102075.72;5019178;28;45459;-68
2022/12/18 00:29:48;;;;;;;;;58.00;46.25;;;;;1.00;59.08;102080.09;5019389;28;46113;-68
2022/12/18 00:32:13;;;;;;;;;57.50;44.00;;;;;1.04;59.34;102079.38;5016529;28;45458;-67
2022/12/18 00:34:39;;;;;;;;;54.00;47.00;;;;;1.06;59.37;102077.66;5018648;28;45512;-68
2022/12/18 00:37:04;;;;;;;;;46.00;43.50;;;;;1.09;59.67;102076.88;5018520;28;45516;-68
2022/12/18 00:39:29;;;;;;;;;50.50;41.75;;;;;1.08;59.15;102070.69;5018214;28;46006;-68
2022/12/18 00:44:38;;;;;;;;;53.50;42.75;;;;;1.14;59.49;102079.59;5018653;28;45797;-68
2022/12/18 00:47:04;;;;;;;;;36.75;35.50;;;;;1.17;59.29;102083.25;5018317;28;46009;-68
2022/12/18 00:49:29;;;;;;;;;50.50;41.25;;;;;1.14;59.53;102085.78;5018358;28;45428;-68
2022/12/18 00:51:54;;;;;;;;;52.50;46.25;;;;;1.19;59.58;102096.44;5018307;28;45388;-67
2022/12/18 00:54:20;;;;;;;;;56.25;47.25;;;;;1.16;59.45;102077.94;5015209;28;45491;-68
2022/12/18 00:56:45;;;;;;;;;56.50;43.75;;;;;1.23;58.81;102078.13;5004529;28;45663;-68
2022/12/18 00:59:10;;;;;;;;;49.75;43.00;;;;;1.23;58.96;102074.63;4998481;28;46190;-68
2022/12/18 01:01:36;;;;;;;;;53.75;46.25;;;;;1.24;58.64;102076.41;4998658;28;45465;-68
2022/12/18 01:04:03;;;;;;;;;50.25;42.25;;;;;1.22;58.71;102078.09;4998802;28;45633;-68
2022/12/18 01:06:28;;;;;;;;;22.75;16.75;;;;;1.13;59.06;102068.22;4997896;28;45701;-68
2022/12/18 01:08:54;;;;;;;;;59.25;44.50;;;;;1.13;58.73;102076.09;4999229;28;45976;-68
2022/12/18 01:11:20;;;;;;;;;50.50;42.25;;;;;1.12;58.22;102066.44;4998978;28;45251;-68
2022/12/18 01:13:46;;;;;;;;;45.75;40.00;;;;;1.09;58.59;102055.84;5010862;28;45238;-68
2022/12/18 01:16:14;;;;;;;;;68.75;48.00;;;;;1.13;59.28;102059.44;5004900;28;45510;-68
2022/12/18 01:18:39;;;;;;;;;56.00;46.25;;;;;1.15;59.11;102063.88;4999042;28;46820;-68
2022/12/18 01:21:11;;;;;;;;;54.50;47.00;;;;;1.03;58.33;102035.50;5012090;28;45486;-68
2022/12/18 01:23:36;;;;;;;;;53.25;47.25;;;;;1.15;58.68;102052.47;5000334;28;45390;-68
2022/12/18 01:26:11;;;;;;;;;51.50;44.25;;;;;1.12;58.85;102045.41;5003815;28;45671;-68
2022/12/18 01:28:37;;;;;;;;;46.75;40.75;;;;;1.17;58.71;102058.66;4998819;28;46184;-68
2022/12/18 01:31:12;;;;;;;;;57.25;47.75;;;;;1.17;58.30;102064.84;4998789;28;45438;-68
2022/12/18 01:33:38;;;;;;;;;42.25;37.50;;;;;1.14;58.81;102061.19;5002499;28;45334;-68
2022/12/18 01:36:03;;;;;;;;;49.00;45.00;;;;;1.19;58.30;102062.25;5002271;28;45459;-68
2022/12/18 01:38:29;;;;;;;;;53.75;44.75;;;;;1.16;58.84;102075.31;5002334;28;46237;-68
2022/12/18 01:40:58;;;;;;;;;43.25;38.75;;;;;1.14;57.98;102062.13;5001972;28;45408;-68
2022/12/18 01:43:46;;;;;;;;;53.00;45.50;;;;;1.11;58.11;102062.91;5002571;28;45330;-68
2022/12/18 01:46:12;;;;;;;;;42.25;38.75;;;;;1.14;58.39;102061.19;5008918;28;45434;-68
2022/12/18 01:48:39;;;;;;;;;42.75;39.00;;;;;1.13;57.87;102060.31;5021677;28;45325;-68
2022/12/18 01:51:07;;;;;;;;;48.25;39.75;;;;;1.04;57.85;102055.69;5022059;28;45442;-68
2022/12/18 01:53:33;;;;;;;;;50.75;44.25;;;;;1.03;58.10;102046.03;4991107;28;45418;-68
2022/12/18 01:55:59;;;;;;;;;47.75;42.25;;;;;1.06;58.00;102047.84;5021794;28;45510;-68
2022/12/18 01:58:36;;;;;;;;;60.25;46.50;;;;;1.04;58.69;102045.19;5021689;28;45460;-68
2022/12/18 02:01:02;;;;;;;;;43.25;37.75;;;;;1.01;59.12;102042.47;5021592;28;45905;-68
2022/12/18 02:03:27;;;;;;;;;54.00;40.25;;;;;1.05;58.55;102043.44;5020919;28;45338;-68
2022/12/18 02:06:23;;;;;;;;;53.75;48.25;;;;;1.05;58.39;102039.09;5021426;28;45257;-67
2022/12/18 02:09:17;;;;;;;;;57.00;49.00;;;;;1.05;58.87;102036.47;5021699;28;45976;-68
2022/12/18 02:12:11;;;;;;;;;43.00;36.25;;;;;1.06;58.50;102030.31;5020926;28;45386;-68
2022/12/18 02:15:01;;;;;;;;;49.75;43.75;;;;;1.03;58.12;102024.97;5015055;28;45439;-68
2022/12/18 02:17:38;;;;;;;;;62.00;48.75;;;;;1.04;58.02;102031.16;5011251;28;45383;-68
2022/12/18 02:20:26;;;;;;;;;54.50;47.00;;;;;0.99;58.62;102020.50;5021530;28;46384;-68
2022/12/18 02:23:05;;;;;;;;;57.25;47.25;;;;;1.03;58.45;102027.63;5007158;28;45311;-68
2022/12/18 02:25:43;;;;;;;;;52.75;46.50;;;;;1.00;58.52;102018.75;5001676;28;45397;-68
2022/12/18 02:28:13;;;;;;;;;55.75;46.75;;;;;0.96;58.33;102007.25;5001685;28;45396;-68
2022/12/18 02:30:40;;;;;;;;;50.00;38.00;;;;;0.91;58.11;102004.50;5001648;28;46640;-68
2022/12/18 02:33:08;;;;;;;;;63.25;46.50;;;;;0.95;58.25;102021.25;5001508;28;45585;-68
2022/12/18 02:35:36;;;;;;;;;55.50;43.75;;;;;0.91;58.28;102019.41;5001743;28;45425;-68
2022/12/18 02:38:04;;;;;;;;;46.25;41.50;;;;;0.85;58.23;102011.31;4990397;28;46050;-68
2022/12/18 02:40:30;;;;;;;;;61.00;45.50;;;;;0.83;57.62;102010.41;5020991;28;46067;-68
2022/12/18 02:43:02;;;;;;;;;46.75;43.75;;;;;0.78;58.44;102012.91;5021408;28;46039;-68
2022/12/18 02:45:28;;;;;;;;;49.00;38.50;;;;;0.73;58.25;102004.88;5021385;28;45357;-68
2022/12/18 02:47:53;;;;;;;;;53.50;41.50;;;;;0.78;58.66;101998.88;5019911;28;46302;-68
2022/12/18 02:50:43;;;;;;;;;46.25;39.25;;;;;0.77;58.05;101999.72;5021106;28;45500;-68
2022/12/18 02:53:23;;;;;;;;;65.50;47.25;;;;;0.73;58.67;101999.63;5003065;28;45472;-68
2022/12/18 02:55:50;;;;;;;;;35.25;27.00;;;;;0.73;58.42;101993.47;5000613;28;45334;-68
2022/12/18 02:58:26;;;;;;;;;55.75;46.50;;;;;0.71;57.97;101993.44;5001244;28;46156;-68
2022/12/18 03:01:07;;;;;;;;;51.50;37.50;;;;;0.72;58.16;101987.34;5009373;28;46678;-68
2022/12/18 03:03:39;;;;;;;;;61.00;44.00;;;;;0.71;57.98;101988.19;5020891;28;45255;-68
2022/12/18 03:06:20;;;;;;;;;44.50;36.75;;;;;0.74;58.46;101976.88;5021257;28;45401;-68
2022/12/18 03:08:51;;;;;;;;;52.00;45.00;;;;;0.73;58.29;101977.72;5020833;28;45421;-68
2022/12/18 03:12:22;;;;;;;;;51.50;45.00;;;;;0.65;58.86;101963.47;5020651;28;45588;-67
2022/12/18 03:14:06;;;;;;;;;58.00;47.75;;;;;0.74;58.58;101979.50;5018363;28;45921;-68
2022/12/18 03:16:33;;;;;;;;;55.00;44.50;;;;;0.62;58.38;101969.53;5004091;28;45370;-68
2022/12/18 03:19:03;;;;;;;;;56.25;45.75;;;;;0.68;58.38;101987.19;5000962;28;45378;-68
2022/12/18 03:21:38;;;;;;;;;49.25;44.25;;;;;0.64;58.59;101987.97;5013541;28;46209;-68
2022/12/18 03:24:07;;;;;;;;;49.75;43.75;;;;;0.63;58.05;101994.06;5015616;28;45334;-68
2022/12/18 03:26:36;;;;;;;;;60.00;48.25;;;;;0.60;58.47;101992.22;5020243;28;45413;-68
2022/12/18 03:29:10;;;;;;;;;58.25;47.25;;;;;0.56;58.98;101982.50;5020599;28;45328;-68
2022/12/18 03:31:39;;;;;;;;;51.25;46.50;;;;;0.49;59.08;101984.06;5020469;28;45382;-68
2022/12/18 03:34:12;;;;;;;;;51.00;41.00;;;;;0.51;58.43;101986.72;5020291;28;45838;-68
2022/12/18 03:36:37;;;;;;;;;42.00;36.25;;;;;0.49;58.17;101984.06;5020248;28;45260;-67
2022/12/18 03:39:03;;;;;;;;;52.00;46.50;;;;;0.45;59.02;101981.28;5020302;28;45572;-68
2022/12/18 03:41:33;;;;;;;;;45.75;39.75;;;;;0.33;58.62;101968.69;5020255;28;46183;-68
2022/12/18 03:44:21;;;;;;;;;60.75;45.75;;;;;0.39;58.63;101981.13;5020231;28;45316;-68
2022/12/18 03:47:04;;;;;;;;;52.50;38.75;;;;;0.44;59.07;101990.91;5020331;28;45674;-68
2022/12/18 03:49:38;;;;;;;;;54.00;46.00;;;;;0.45;59.31;101989.16;5020284;28;45353;-68
2022/12/18 03:52:34;;;;;;;;;55.25;46.25;;;;;0.46;59.32;101980.44;5017155;28;45567;-68
2022/12/18 03:55:01;;;;;;;;;50.50;42.50;;;;;0.47;59.46;101980.50;4994361;28;45861;-68
2022/12/18 03:57:30;;;;;;;;;50.50;44.75;;;;;0.45;58.39;101963.81;5000231;28;45358;-68
2022/12/18 04:00:00;;;;;;;;;42.50;38.25;;;;;0.45;59.09;101973.41;5000212;28;45584;-68
2022/12/18 04:02:26;;;;;;;;;55.50;47.75;;;;;0.47;59.34;101964.75;4999147;28;46324;-68
2022/12/18 04:04:56;;;;;;;;;58.25;46.50;;;;;0.44;58.50;101954.13;5003104;28;45362;-68
2022/12/18 04:07:23;;;;;;;;;47.00;42.00;;;;;0.42;59.54;101953.22;5016179;28;45493;-68
2022/12/18 04:09:50;;;;;;;;;59.00;44.75;;;;;0.33;59.26;101945.03;5019035;28;45420;-68
2022/12/18 04:12:16;;;;;;;;;48.75;45.75;;;;;0.32;58.45;101936.28;5018745;28;46142;-68
2022/12/18 04:14:41;;;;;;;;;46.25;37.00;;;;;0.32;59.22;101943.28;5014207;28;45447;-68
2022/12/18 04:17:06;;;;;;;;;48.00;42.25;;;;;0.29;58.69;101943.19;4999221;28;45648;-68
2022/12/18 04:19:32;;;;;;;;;49.50;44.50;;;;;0.26;58.71;101953.59;5000373;28;45882;-68
2022/12/18 04:21:57;;;;;;;;;55.00;46.00;;;;;0.21;58.70;101957.84;5010541;28;45341;-68
2022/12/18 04:24:23;;;;;;;;;52.00;41.50;;;;;0.08;59.18;101938.19;4998879;28;45330;-68
2022/12/18 04:26:48;;;;;;;;;31.00;26.25;;;;;0.20;59.79;101959.53;4998806;28;45314;-68
2022/12/18 04:29:13;;;;;;;;;50.50;43.00;;;;;0.22;59.91;101957.88;4999149;28;45636;-67
2022/12/18 04:31:38;;;;;;;;;55.25;45.25;;;;;0.22;59.64;101960.50;4998885;28;46098;-68
2022/12/18 04:34:04;;;;;;;;;51.00;44.50;;;;;0.22;59.32;101955.25;4999235;28;45404;-68
2022/12/18 04:36:29;;;;;;;;;50.50;46.00;;;;;0.20;59.31;101950.78;4998236;28;45636;-68
2022/12/18 04:38:55;;;;;;;;;48.00;45.25;;;;;0.11;59.38;101936.53;4999719;28;45385;-68
2022/12/18 04:41:20;;;;;;;;;45.25;40.25;;;;;0.22;59.27;101951.72;4999452;28;46183;-68
2022/12/18 04:43:45;;;;;;;;;58.75;45.50;;;;;0.24;59.85;101956.19;4999698;28;45523;-68
2022/12/18 04:46:11;;;;;;;;;44.75;38.75;;;;;0.24;59.01;101965.81;4999580;28;45479;-68
2022/12/18 04:48:37;;;;;;;;;47.25;34.50;;;;;0.23;59.40;101967.53;4999286;28;45396;-68
2022/12/18 04:51:03;;;;;;;;;52.50;46.00;;;;;0.21;59.25;101956.09;5000492;28;46227;-68
2022/12/18 04:53:28;;;;;;;;;60.00;44.25;;;;;0.21;59.74;101957.84;5010920;28;45822;-68
2022/12/18 04:56:23;;;;;;;;;54.75;44.75;;;;;0.21;59.12;101958.72;4999443;28;45405;-68
2022/12/18 04:58:49;;;;;;;;;53.25;42.25;;;;;0.21;59.68;101966.59;4993333;28;45432;-68
2022/12/18 05:01:16;;;;;;;;;44.50;34.50;;;;;0.21;60.10;101963.09;5019109;28;46470;-68
2022/12/18 05:03:42;;;;;;;;;46.00;43.75;;;;;0.17;59.34;101963.00;5019093;28;45818;-68
2022/12/18 05:06:07;;;;;;;;;47.50;42.75;;;;;0.22;59.34;101963.13;5018346;28;45377;-68
2022/12/18 05:08:33;;;;;;;;;56.50;48.00;;;;;0.23;59.28;101972.78;5018595;28;45589;-68
2022/12/18 05:11:07;;;;;;;;;55.25;42.25;;;;;0.20;59.02;101969.16;5018043;28;45388;-68
2022/12/18 05:13:34;;;;;;;;;50.00;43.50;;;;;0.21;59.29;101970.97;5016898;28;45258;-68
2022/12/18 05:16:00;;;;;;;;;48.67;39.33;;;;;0.16;59.67;101957.69;5006955;28;45412;-68
2022/12/18 05:18:26;;;;;;;;;51.25;42.75;;;;;0.17;59.87;101967.38;4999011;28;45495;-68
2022/12/18 05:20:52;;;;;;;;;53.75;42.50;;;;;0.19;59.53;101963.03;5011099;28;45380;-68
2022/12/18 05:23:19;;;;;;;;;51.25;45.00;;;;;0.21;59.29;101966.59;5009434;28;45861;-68
2022/12/18 05:25:52;;;;;;;;;45.75;41.75;;;;;0.17;59.73;101968.25;5018339;28;45496;-68
2022/12/18 05:28:17;;;;;;;;;57.75;37.50;;;;;0.11;59.72;101975.03;4999196;28;45417;-68
2022/12/18 05:30:47;;;;;;;;;45.75;39.50;;;;;0.10;59.72;101989.91;4998879;28;45384;-68
2022/12/18 15:08:29;;;;;;;;;62.00;49.75;;;;;1.58;67.98;101682.53;5127492;27;45499;-67
2022/12/18 15:10:54;;;;;;;;;63.25;48.00;;;;;1.78;67.50;101681.16;5087325;27;46159;-65
2022/12/18 15:13:24;;;;;;;;;54.25;46.75;;;;;1.96;67.05;101687.63;5081484;27;45499;-69
2022/12/18 15:15:51;;;;;;;;;58.75;40.50;;;;;2.12;67.13;101681.78;5089247;27;45848;-69
2022/12/18 15:18:20;;;;;;;;;65.75;54.25;;;;;2.25;66.51;101674.97;5091118;27;45762;-68
2022/12/18 15:20:50;;;;;;;;;62.75;48.50;;;;;2.39;66.93;101681.34;5090107;27;45982;-67
2022/12/18 15:23:27;;;;;;;;;57.50;48.75;;;;;2.52;65.93;101685.09;5092276;27;45571;-69
2022/12/18 15:26:20;;;;;;;;;62.50;49.25;;;;;2.66;66.39;101679.13;5090748;27;45712;-67
2022/12/18 15:28:45;;;;;;;;;59.25;48.75;;;;;2.76;66.11;101670.50;5079877;27;46054;-68
2022/12/18 15:31:14;;;;;;;;;58.00;47.50;;;;;2.84;65.81;101660.94;5091088;27;45751;-67
2022/12/18 15:34:17;;;;;;;;;55.25;45.75;;;;;2.93;65.79;101653.16;5090849;27;45655;-68
2022/12/18 15:36:43;;;;;;;;;58.50;47.50;;;;;2.96;65.48;101647.91;5091029;27;45885;-67
2022/12/18 15:39:12;;;;;;;;;58.00;46.25;;;;;3.01;65.13;101637.44;5093883;27;45629;-66
2022/12/18 15:41:37;;;;;;;;;59.00;48.25;;;;;3.09;65.24;101637.50;5090428;27;46122;-67
2022/12/18 15:44:16;;;;;;;;;59.00;47.00;;;;;3.19;64.83;101627.97;5084143;27;45500;-66
2022/12/18 15:46:42;;;;;;;;;57.75;47.50;;;;;3.27;64.87;101636.88;5092120;27;45554;-68
2022/12/18 15:49:07;;;;;;;;;56.50;47.50;;;;;3.29;64.78;101625.47;5088634;27;46055;-67
2022/12/18 15:51:35;;;;;;;;;56.00;45.00;;;;;3.33;64.79;101615.84;5100204;27;45521;-67
2022/12/18 15:54:03;;;;;;;;;52.25;44.50;;;;;3.37;64.84;101617.63;5091143;27;47104;-68
2022/12/18 15:59:16;;;;;;;;;50.25;43.00;;;;;3.48;64.68;101625.69;5091057;27;45427;-67
2022/12/18 16:01:45;;;;;;;;;51.75;43.50;;;;;3.51;64.26;101623.09;5090484;27;45762;-67
2022/12/18 16:04:13;;;;;;;;;59.75;48.25;;;;;3.53;64.45;101605.50;5088561;27;45671;-67
2022/12/18 16:06:38;;;;;;;;;52.50;45.50;;;;;3.56;64.56;101618.72;5089694;27;45877;-67
2022/12/18 16:09:04;;;;;;;;;52.00;47.00;;;;;3.57;64.23;101603.78;5075154;27;46317;-68
2022/12/18 16:11:38;;;;;;;;;55.25;43.75;;;;;3.65;63.96;101610.00;5089196;27;45787;-69
2022/12/18 16:14:28;;;;;;;;;56.75;48.25;;;;;3.70;64.63;101605.66;5061540;28;45741;-69
2022/12/18 16:16:59;;;;;;;;;52.00;43.50;;;;;3.71;64.33;101603.03;5073099;28;45450;-69
2022/12/18 16:19:26;;;;;;;;;61.50;50.00;;;;;3.72;64.55;101603.91;5068018;28;45986;-69
2022/12/18 16:21:52;;;;;;;;;57.75;45.50;;;;;3.79;64.77;101607.50;5077746;28;45531;-69
2022/12/18 16:24:23;;;;;;;;;61.25;50.00;;;;;3.82;64.72;101599.59;5075430;27;46141;-68
2022/12/18 16:26:51;;;;;;;;;58.75;50.00;;;;;3.83;64.80;101609.31;5076069;27;45483;-69
2022/12/18 16:29:16;;;;;;;;;58.00;45.75;;;;;3.79;64.44;101599.56;5077276;27;46894;-69
2022/12/18 16:31:42;;;;;;;;;61.00;50.75;;;;;3.82;64.57;101605.75;5077478;28;45757;-69
2022/12/18 16:34:22;;;;;;;;;57.75;48.25;;;;;3.85;64.45;101615.50;5076379;28;45460;-68
2022/12/18 16:36:48;;;;;;;;;63.00;52.00;;;;;3.88;64.86;101608.47;5066294;28;45560;-68
2022/12/18 16:39:14;;;;;;;;;70.25;53.75;;;;;3.90;65.12;101603.19;5066800;27;46117;-68
2022/12/18 16:41:39;;;;;;;;;70.75;54.50;;;;;3.93;65.06;101613.81;5076882;28;45496;-68
2022/12/18 16:44:04;;;;;;;;;71.25;53.00;;;;;3.78;64.59;101576.69;5076714;27;45867;-71
2022/12/18 16:46:30;;;;;;;;;63.50;49.00;;;;;3.94;65.02;101590.91;5076710;28;45763;-69
2022/12/18 16:48:58;;;;;;;;;71.50;58.25;;;;;4.00;65.32;101606.81;5076034;28;46021;-68
2022/12/18 16:51:24;;;;;;;;;68.00;55.25;;;;;4.02;65.18;101603.31;5076579;27;45481;-68
2022/12/18 16:53:49;;;;;;;;;64.00;48.25;;;;;4.05;65.06;101597.16;5077404;27;45805;-67
2022/12/18 16:56:14;;;;;;;;;55.50;46.50;;;;;4.02;65.10;101579.53;5091054;27;45846;-67
2022/12/18 16:58:39;;;;;;;;;61.50;48.25;;;;;4.06;65.47;101578.69;5075697;28;45691;-67
2022/12/18 17:01:09;;;;;;;;;61.50;47.00;;;;;4.07;65.38;101572.50;5075988;27;45592;-68
2022/12/18 17:03:34;;;;;;;;;56.25;47.00;;;;;4.10;65.18;101570.78;5068730;27;45431;-66
2022/12/18 17:06:04;;;;;;;;;56.50;45.00;;;;;4.12;64.80;101574.31;5076736;27;45539;-65
2022/12/18 17:08:30;;;;;;;;;61.50;47.00;;;;;4.14;65.73;101567.28;5076212;27;45473;-65
2022/12/18 17:10:55;;;;;;;;;57.75;48.25;;;;;4.07;65.18;101547.84;5075470;28;45460;-67
2022/12/18 17:13:24;;;;;;;;;61.50;47.75;;;;;4.15;65.50;101555.84;5073598;28;45705;-67
2022/12/18 17:15:50;;;;;;;;;52.75;43.25;;;;;4.18;65.51;101556.75;5075763;27;45503;-65
2022/12/18 17:18:15;;;;;;;;;55.50;45.50;;;;;4.21;65.64;101569.09;5076685;27;45975;-67
2022/12/18 17:20:40;;;;;;;;;56.25;46.00;;;;;4.23;65.32;101565.59;5073935;28;45578;-65
2022/12/18 17:23:06;;;;;;;;;66.75;48.50;;;;;4.29;64.86;101566.50;5075532;28;46259;-65
2022/12/18 17:25:31;;;;;;;;;63.00;51.25;;;;;4.25;66.13;101562.97;5076277;27;45809;-66
2022/12/18 17:27:56;;;;;;;;;61.75;47.75;;;;;4.31;65.91;101568.31;5075544;27;45560;-68
2022/12/18 17:30:21;;;;;;;;;59.25;49.50;;;;;4.34;65.87;101573.59;5074240;27;46070;-65
2022/12/18 17:32:47;;;;;;;;;63.00;48.75;;;;;4.33;65.27;101557.75;5074239;27;45694;-65
2022/12/18 17:35:12;;;;;;;;;61.50;48.25;;;;;4.34;65.49;101557.72;5076510;28;45724;-66
2022/12/18 17:37:37;;;;;;;;;66.75;52.50;;;;;4.35;65.78;101550.69;5075282;27;46420;-66
2022/12/18 17:40:03;;;;;;;;;64.00;47.75;;;;;4.42;65.83;101566.59;5076240;27;45816;-68
2022/12/18 17:42:28;;;;;;;;;61.00;48.75;;;;;4.44;66.42;101551.66;5073281;28;45515;-67
2022/12/18 17:44:54;;;;;;;;;66.50;55.00;;;;;4.48;66.70;101554.28;5074923;27;45490;-68
2022/12/18 17:47:19;;;;;;;;;85.00;60.75;;;;;4.48;66.54;101544.63;5072650;27;47168;-68
2022/12/18 17:49:44;;;;;;;;;73.25;59.00;;;;;4.52;66.23;101554.31;5074466;27;45538;-69
2022/12/18 17:52:10;;;;;;;;;74.25;58.00;;;;;4.44;66.41;101533.13;5073606;27;45446;-70
2022/12/18 17:54:38;;;;;;;;;73.50;57.75;;;;;4.48;66.19;101535.78;5076201;27;45343;-70
2022/12/18 17:57:04;;;;;;;;;75.75;59.50;;;;;4.57;66.15;101538.47;5074707;28;45780;-69
2022/12/18 17:59:30;;;;;;;;;74.75;59.50;;;;;4.59;66.57;101558.78;5072600;27;45435;-68
2022/12/18 18:01:55;;;;;;;;;76.50;60.50;;;;;4.60;66.13;101546.44;5073943;28;45569;-73
2022/12/18 18:04:20;;;;;;;;;70.75;54.50;;;;;4.63;65.92;101560.56;5074136;28;45634;-68
2022/12/18 18:06:46;;;;;;;;;63.00;51.00;;;;;4.62;66.24;101560.53;5075690;27;46235;-68
2022/12/18 18:09:12;;;;;;;;;63.00;51.25;;;;;4.59;66.32;101558.78;5074542;27;45526;-68
2022/12/18 18:14:21;;;;;;;;;65.25;51.75;;;;;4.67;66.12;101600.25;5072020;28;45477;-68
2022/12/18 18:16:49;;;;;;;;;74.75;56.00;;;;;4.70;67.16;101614.38;5074651;27;46004;-68
2022/12/18 18:19:22;;;;;;;;;65.75;53.00;;;;;4.69;67.16;101609.94;5073998;28;46022;-68
2022/12/18 18:21:51;;;;;;;;;67.50;53.75;;;;;4.67;67.51;101605.53;5075375;27;45646;-67
2022/12/18 18:24:19;;;;;;;;;71.00;54.50;;;;;4.75;66.49;101619.69;5073540;27;45656;-67
2022/12/18 18:26:45;;;;;;;;;62.75;50.25;;;;;4.77;67.73;101613.50;5074384;27;45359;-68
2022/12/18 18:29:19;;;;;;;;;66.25;53.00;;;;;4.79;67.74;101614.44;5070955;27;45410;-68
2022/12/18 18:31:45;;;;;;;;;65.25;55.00;;;;;4.80;67.44;101610.91;5076714;28;45397;-68
2022/12/18 18:34:15;;;;;;;;;62.00;51.75;;;;;4.81;67.73;101611.75;5076446;27;45466;-68
2022/12/18 18:36:40;;;;;;;;;63.75;50.25;;;;;4.82;68.06;101613.53;5078079;27;45275;-68
2022/12/18 18:39:06;;;;;;;;;65.75;51.25;;;;;4.85;67.54;101615.34;5077529;28;45569;-68
2022/12/18 18:41:31;;;;;;;;;66.75;54.00;;;;;4.85;67.65;101616.22;5073571;28;45424;-67
2022/12/18 18:43:57;;;;;;;;;61.00;49.00;;;;;4.87;67.96;101613.56;5072538;28;45305;-67
2022/12/18 18:46:23;;;;;;;;;73.50;55.25;;;;;4.91;67.49;101623.28;5078321;27;46483;-67
2022/12/18 18:48:49;;;;;;;;;72.25;53.00;;;;;4.90;67.50;101616.25;5076949;28;45870;-67
2022/12/18 18:51:17;;;;;;;;;66.25;56.00;;;;;4.95;67.11;101628.59;5078841;27;45351;-67
2022/12/18 18:53:44;;;;;;;;;69.75;54.00;;;;;4.95;67.55;101622.44;5078097;27;45432;-67
2022/12/18 18:56:12;;;;;;;;;67.50;55.00;;;;;4.93;68.15;101617.13;5078615;28;46553;-68
2022/12/18 18:58:38;;;;;;;;;66.25;54.25;;;;;4.92;67.85;101614.47;5075766;28;45392;-68
2022/12/18 19:01:06;;;;;;;;;69.50;55.50;;;;;4.92;68.31;101611.84;5077007;28;45341;-68
2022/12/18 19:03:32;;;;;;;;;73.50;56.25;;;;;4.95;68.14;101615.38;5070271;28;45570;-67
2022/12/18 19:05:59;;;;;;;;;69.00;56.00;;;;;4.98;68.81;101628.63;5070095;27;45523;-68
2022/12/18 19:08:30;;;;;;;;;71.25;53.00;;;;;4.97;68.17;101608.31;5077204;27;45464;-67
2022/12/18 19:10:58;;;;;;;;;68.75;53.75;;;;;5.00;69.17;101611.00;5077712;28;45420;-67
2022/12/18 19:13:26;;;;;;;;;69.75;56.75;;;;;5.04;68.38;101611.88;5072980;28;45412;-67
2022/12/18 19:15:54;;;;;;;;;66.00;54.00;;;;;5.05;69.24;101594.25;5076537;27;45404;-67
2022/12/18 19:18:20;;;;;;;;;62.25;51.00;;;;;5.05;68.40;101588.97;5076787;28;45387;-67
2022/12/18 19:20:59;;;;;;;;;69.75;54.00;;;;;5.10;69.35;101589.88;5077474;27;45430;-67
2022/12/18 19:23:24;;;;;;;;;66.50;54.00;;;;;5.10;69.28;101587.22;5072070;27;45574;-68
2022/12/18 19:25:50;;;;;;;;;60.00;51.75;;;;;5.12;68.79;101590.75;5077154;28;45330;-67
2022/12/18 19:28:16;;;;;;;;;54.25;47.00;;;;;5.12;69.36;101582.81;5078268;28;45324;-67
2022/12/18 19:30:42;;;;;;;;;65.75;52.00;;;;;5.08;69.47;101565.13;5077452;27;45444;-67
2022/12/18 19:33:07;;;;;;;;;66.00;51.75;;;;;5.08;68.66;101562.50;5076401;27;46590;-67
2022/12/18 19:35:33;;;;;;;;;64.00;52.50;;;;;5.07;69.90;101556.31;5077180;28;45402;-67
2022/12/18 19:37:58;;;;;;;;;65.50;53.00;;;;;5.11;69.97;101570.44;5078324;28;45402;-68
2022/12/18 19:40:24;;;;;;;;;66.50;54.50;;;;;5.10;69.58;101572.22;5075232;28;45282;-67
2022/12/18 19:42:49;;;;;;;;;65.75;52.00;;;;;5.11;69.30;101566.06;5076128;27;45421;-67
2022/12/18 19:45:15;;;;;;;;;70.25;53.00;;;;;5.13;69.71;101558.13;5078995;27;45576;-66
2022/12/18 19:47:40;;;;;;;;;58.25;45.75;;;;;5.12;69.52;101559.00;5080894;28;45317;-66
2022/12/18 19:50:06;;;;;;;;;56.50;45.75;;;;;5.11;70.04;101555.47;5081020;28;45315;-66
2022/12/18 19:52:32;;;;;;;;;80.25;60.25;;;;;5.13;69.49;101561.66;5079646;28;45364;-68
2022/12/18 19:54:57;;;;;;;;;72.25;55.00;;;;;5.15;69.72;101559.88;5080984;27;46162;-67
2022/12/18 19:57:22;;;;;;;;;72.00;56.50;;;;;5.16;69.71;101566.06;5079512;27;45519;-68
2022/12/18 19:59:48;;;;;;;;;65.50;52.50;;;;;5.18;69.53;101575.78;5078554;28;45386;-70
2022/12/18 20:02:13;;;;;;;;;72.25;56.25;;;;;5.15;70.19;101573.13;5068811;27;45567;-69
2022/12/18 20:04:39;;;;;;;;;63.25;52.25;;;;;5.09;69.55;101572.22;5077068;27;46248;-68
2022/12/18 20:07:04;;;;;;;;;75.50;58.50;;;;;5.18;70.32;101586.38;5071427;28;45846;-68
2022/12/18 20:09:29;;;;;;;;;73.75;57.25;;;;;5.17;70.69;101595.19;5072247;27;45713;-68
2022/12/18 20:11:55;;;;;;;;;72.00;59.00;;;;;5.18;70.14;101583.72;5077182;27;45467;-69
2022/12/18 20:14:20;;;;;;;;;77.00;60.00;;;;;5.22;69.46;101584.59;5075957;27;45557;-70
2022/12/18 20:16:45;;;;;;;;;79.00;59.50;;;;;5.24;70.36;101581.97;5074853;28;45751;-70
2022/12/18 20:19:12;;;;;;;;;74.50;56.25;;;;;5.27;69.86;101576.69;5073987;28;45498;-70
2022/12/18 20:21:37;;;;;;;;;80.75;62.00;;;;;5.32;69.39;101574.94;5077825;28;45598;-70
2022/12/18 20:24:02;;;;;;;;;80.75;61.50;;;;;5.32;69.73;101565.22;5076364;28;45407;-69
2022/12/18 20:26:28;;;;;;;;;81.25;65.50;;;;;5.31;70.13;101570.50;5074628;28;45747;-69
2022/12/18 20:28:54;;;;;;;;;83.00;64.25;;;;;5.35;70.06;101574.94;5077921;27;45713;-69
2022/12/18 20:31:19;;;;;;;;;85.50;67.00;;;;;5.37;70.52;101575.81;5077113;27;45757;-68
2022/12/18 20:33:45;;;;;;;;;77.25;60.50;;;;;5.38;70.02;101574.97;5075161;27;47661;-67
2022/12/18 20:36:15;;;;;;;;;73.00;57.25;;;;;5.39;69.46;101567.00;5073379;27;45713;-67
2022/12/18 20:38:40;;;;;;;;;69.25;53.50;;;;;5.42;70.62;101546.72;5075829;27;45416;-68
2022/12/18 20:41:11;;;;;;;;;66.50;51.25;;;;;5.46;70.66;101540.53;5077361;28;45603;-68
2022/12/18 20:43:37;;;;;;;;;61.25;51.50;;;;;5.45;70.47;101549.38;5075618;28;46186;-69
2022/12/18 20:46:07;;;;;;;;;53.50;44.25;;;;;5.49;70.89;101548.50;5074287;28;45828;-69
2022/12/18 20:48:33;;;;;;;;;71.75;55.25;;;;;5.51;70.87;101549.38;5076460;27;45392;-70
2022/12/18 20:51:04;;;;;;;;;61.00;48.00;;;;;5.54;70.31;101538.78;5077585;28;45450;-68
2022/12/18 20:53:30;;;;;;;;;53.00;44.75;;;;;5.54;70.55;101546.72;5077174;28;47565;-70
2022/12/18 20:55:56;;;;;;;;;55.25;43.25;;;;;5.54;70.81;101542.31;5073427;28;45578;-69
2022/12/18 20:58:21;;;;;;;;;53.00;44.75;;;;;5.55;70.95;101538.78;5073369;27;45455;-69
2022/12/18 21:00:46;;;;;;;;;44.50;40.25;;;;;5.52;71.27;101533.47;5080637;27;45557;-68
2022/12/18 21:03:12;;;;;;;;;50.75;43.25;;;;;5.53;70.85;101529.97;5075279;28;46041;-69
2022/12/18 21:05:37;;;;;;;;;59.00;45.25;;;;;5.57;71.26;101530.84;5076968;27;45414;-68